createdAt,value
2018-10-11T00:01:09.347Z,15.30
2018-10-11T00:04:12.226Z,15.30
2018-10-11T00:07:15.266Z,15.40
2018-10-11T00:10:18.214Z,15.40
2018-10-11T00:13:21.184Z,15.50
2018-10-11T00:16:24.161Z,15.50
2018-10-11T00:19:27.128Z,15.50
2018-10-11T00:22:30.116Z,15.50
2018-10-11T00:25:33.109Z,15.40
2018-10-11T00:28:36.101Z,15.40
2018-10-11T00:31:39.102Z,15.40
2018-10-11T00:34:42.023Z,15.20
2018-10-11T00:37:45.000Z,15.20
2018-10-11T00:40:47.974Z,15.20
2018-10-11T00:43:50.929Z,15.10
2018-10-11T00:46:53.897Z,15.00
2018-10-11T00:49:56.846Z,14.90
2018-10-11T00:52:59.783Z,14.70
2018-10-11T00:56:02.781Z,14.70
2018-10-11T00:59:06.001Z,14.70
2018-10-11T01:02:09.054Z,14.80
2018-10-11T01:05:12.040Z,14.90
2018-10-11T01:08:14.950Z,14.90
2018-10-11T01:11:17.983Z,14.90
2018-10-11T01:14:20.915Z,15.00
2018-10-11T01:17:24.094Z,15.00
2018-10-11T01:20:27.136Z,15.10
2018-10-11T01:23:30.043Z,15.10
2018-10-11T01:26:33.042Z,15.00
2018-10-11T01:29:35.977Z,14.90
2018-10-11T01:32:38.869Z,15.00
2018-10-11T01:35:41.782Z,15.00
2018-10-11T01:38:46.495Z,15.10
2018-10-11T01:41:49.577Z,15.10
2018-10-11T01:44:52.637Z,15.10
2018-10-11T01:47:55.837Z,15.10
2018-10-11T01:50:58.809Z,14.90
2018-10-11T01:54:01.852Z,14.90
2018-10-11T01:57:04.877Z,15.00
2018-10-11T02:00:07.901Z,15.10
2018-10-11T02:03:10.843Z,15.20
2018-10-11T02:06:13.782Z,15.10
2018-10-11T02:09:16.740Z,15.20
2018-10-11T02:12:19.718Z,15.40
2018-10-11T02:15:22.986Z,15.40
2018-10-11T02:18:25.939Z,15.60
2018-10-11T02:21:28.888Z,15.60
2018-10-11T02:24:32.029Z,15.70
2018-10-11T02:27:34.961Z,15.70
2018-10-11T02:30:37.987Z,15.70
2018-10-11T02:33:40.962Z,15.70
2018-10-11T02:36:43.947Z,15.70
2018-10-11T02:39:46.897Z,15.70
2018-10-11T02:42:49.853Z,15.60
2018-10-11T02:45:52.764Z,15.70
2018-10-11T02:48:55.720Z,15.80
2018-10-11T02:51:58.741Z,15.80
2018-10-11T02:55:01.831Z,15.80
2018-10-11T02:58:22.157Z,15.90
2018-10-11T03:01:25.158Z,15.70
2018-10-11T03:04:30.491Z,15.70
2018-10-11T03:07:33.523Z,15.80
2018-10-11T03:10:36.558Z,15.80
2018-10-11T03:13:39.543Z,15.70
2018-10-11T03:16:42.568Z,15.70
2018-10-11T03:19:45.521Z,15.70
2018-10-11T03:22:48.466Z,15.60
2018-10-11T03:25:51.459Z,15.60
2018-10-11T03:28:54.434Z,15.50
2018-10-11T03:31:57.417Z,15.40
2018-10-11T03:35:00.335Z,15.40
2018-10-11T03:38:03.323Z,15.30
2018-10-11T03:41:06.468Z,15.30
2018-10-11T03:44:09.397Z,15.20
2018-10-11T03:47:12.315Z,15.20
2018-10-11T03:50:15.233Z,15.00
2018-10-11T03:53:18.253Z,15.00
2018-10-11T03:56:21.206Z,15.00
2018-10-11T03:59:24.940Z,15.00
2018-10-11T04:02:27.955Z,15.00
2018-10-11T04:05:30.873Z,14.90
2018-10-11T04:08:33.834Z,15.00
2018-10-11T04:11:36.824Z,15.00
2018-10-11T04:14:39.798Z,15.00
2018-10-11T04:17:42.737Z,15.00
2018-10-11T04:20:45.692Z,14.90
2018-10-11T04:23:48.629Z,14.90
2018-10-11T04:26:51.571Z,14.90
2018-10-11T04:29:54.565Z,14.90
2018-10-11T04:32:57.500Z,14.80
2018-10-11T04:36:00.482Z,14.80
2018-10-11T04:39:04.630Z,14.80
2018-10-11T04:42:07.827Z,14.80
2018-10-11T04:45:10.799Z,14.80
2018-10-11T04:48:13.722Z,14.70
2018-10-11T04:51:16.708Z,14.70
2018-10-11T04:54:19.668Z,14.60
2018-10-11T04:57:22.594Z,14.60
2018-10-11T05:00:26.171Z,14.50
2018-10-11T05:03:29.105Z,14.50
2018-10-11T05:06:32.076Z,14.50
2018-10-11T05:09:35.109Z,14.50
2018-10-11T05:12:38.126Z,14.60
2018-10-11T05:15:42.329Z,14.60
2018-10-11T05:18:48.491Z,14.60
2018-10-11T05:21:51.488Z,14.60
2018-10-11T05:24:54.558Z,14.60
2018-10-11T05:27:57.501Z,14.50
2018-10-11T05:31:00.789Z,14.60
2018-10-11T05:34:03.813Z,14.50
2018-10-11T05:37:06.809Z,14.40
2018-10-11T05:40:09.845Z,14.40
2018-10-11T05:43:13.481Z,14.40
2018-10-11T05:46:31.597Z,14.40
2018-10-11T05:49:34.641Z,14.30
2018-10-11T05:52:37.732Z,14.20
2018-10-11T05:55:41.047Z,14.10
2018-10-11T05:58:44.379Z,14.20
2018-10-11T06:01:47.769Z,14.20
2018-10-11T06:04:50.845Z,14.20
2018-10-11T06:07:54.049Z,14.30
2018-10-11T06:10:57.100Z,14.30
2018-10-11T06:14:00.167Z,14.30
2018-10-11T06:17:03.170Z,14.30
2018-10-11T06:20:06.250Z,14.10
2018-10-11T06:23:09.395Z,14.30
2018-10-11T06:26:12.938Z,14.30
2018-10-11T06:29:16.183Z,14.40
2018-10-11T06:32:19.208Z,14.30
2018-10-11T06:35:22.261Z,14.30
2018-10-11T06:38:25.306Z,14.40
2018-10-11T06:41:28.433Z,14.40
2018-10-11T06:44:31.582Z,14.40
2018-10-11T06:47:34.614Z,14.40
2018-10-11T06:50:37.803Z,14.50
2018-10-11T06:53:40.910Z,14.50
2018-10-11T06:56:43.826Z,14.50
2018-10-11T06:59:46.831Z,14.50
2018-10-11T07:02:49.755Z,14.40
2018-10-11T07:05:52.716Z,14.40
2018-10-11T07:08:55.687Z,14.40
2018-10-11T07:11:58.718Z,14.50
2018-10-11T07:15:01.716Z,14.50
2018-10-11T07:18:04.758Z,14.70
2018-10-11T07:21:07.925Z,15.00
2018-10-11T07:24:10.881Z,14.80
2018-10-11T07:27:13.881Z,14.70
2018-10-11T07:30:16.848Z,14.60
2018-10-11T07:33:19.783Z,14.60
2018-10-11T07:36:22.733Z,14.50
2018-10-11T07:39:25.690Z,14.60
2018-10-11T07:42:28.639Z,14.60
2018-10-11T07:45:31.672Z,14.60
2018-10-11T07:48:34.626Z,14.60
2018-10-11T07:51:37.634Z,14.80
2018-10-11T07:54:40.586Z,14.80
2018-10-11T07:57:43.517Z,15.00
2018-10-11T08:00:46.464Z,15.50
2018-10-11T08:03:49.397Z,15.90
2018-10-11T08:06:52.452Z,16.10
2018-10-11T08:09:55.437Z,16.20
2018-10-11T08:12:58.424Z,16.20
2018-10-11T08:16:01.417Z,16.10
2018-10-11T08:19:04.661Z,16.20
2018-10-11T08:22:07.338Z,16.30
2018-10-11T08:25:10.387Z,16.40
2018-10-11T08:28:13.204Z,16.50
2018-10-11T08:31:16.200Z,16.60
2018-10-11T08:34:19.132Z,16.70
2018-10-11T08:37:22.200Z,16.80
2018-10-11T08:40:25.173Z,16.90
2018-10-11T08:43:28.142Z,17.00
2018-10-11T08:46:31.086Z,17.10
2018-10-11T08:49:33.998Z,17.20
2018-10-11T08:52:36.917Z,17.20
2018-10-11T08:55:39.982Z,17.30
2018-10-11T08:58:42.854Z,17.40
2018-10-11T09:01:45.873Z,17.50
2018-10-11T09:04:48.865Z,17.60
2018-10-11T09:07:51.876Z,17.50
2018-10-11T09:10:54.943Z,17.60
2018-10-11T09:13:57.846Z,17.70
2018-10-11T09:17:00.800Z,17.80
2018-10-11T09:20:04.077Z,17.80
2018-10-11T09:23:07.093Z,17.80
2018-10-11T09:26:10.020Z,17.90
2018-10-11T09:29:13.071Z,18.00
2018-10-11T09:32:16.022Z,18.00
2018-10-11T09:35:19.021Z,18.00
2018-10-11T09:38:21.979Z,18.10
2018-10-11T09:41:24.920Z,18.00
2018-10-11T09:44:27.889Z,18.10
2018-10-11T09:47:30.834Z,18.20
2018-10-11T09:50:33.845Z,18.20
2018-10-11T09:53:36.883Z,18.40
2018-10-11T09:57:49.687Z,18.40
2018-10-11T10:00:58.181Z,18.40
2018-10-11T10:04:01.110Z,18.50
2018-10-11T10:07:04.069Z,18.40
2018-10-11T10:10:07.494Z,18.50
2018-10-11T10:13:10.548Z,18.50
2018-10-11T10:16:13.538Z,18.60
2018-10-11T10:19:16.521Z,18.60
2018-10-11T10:22:19.478Z,18.70
2018-10-11T10:25:22.411Z,18.80
2018-10-11T10:28:25.348Z,19.10
2018-10-11T10:31:28.247Z,19.30
2018-10-11T10:34:31.218Z,19.70
2018-10-11T10:37:34.220Z,19.80
2018-10-11T10:40:37.133Z,19.90
2018-10-11T10:43:40.101Z,19.90
2018-10-11T10:46:43.045Z,19.90
2018-10-11T10:49:46.016Z,20.00
2018-10-11T10:52:48.929Z,20.10
2018-10-11T10:55:51.858Z,20.60
2018-10-11T10:58:54.873Z,20.50
2018-10-11T11:01:57.843Z,20.90
2018-10-11T11:05:00.811Z,21.20
2018-10-11T11:08:03.770Z,21.30
2018-10-11T11:11:06.944Z,21.30
2018-10-11T11:14:10.857Z,21.40
2018-10-11T11:17:13.810Z,21.70
2018-10-11T11:20:16.985Z,21.50
2018-10-11T11:23:20.234Z,21.20
2018-10-11T11:26:23.210Z,21.50
2018-10-11T11:29:26.129Z,22.00
2018-10-11T11:32:29.129Z,22.10
2018-10-11T11:35:32.069Z,22.40
2018-10-11T11:38:35.122Z,22.20
2018-10-11T11:41:38.410Z,22.20
2018-10-11T11:44:41.665Z,22.10
2018-10-11T11:47:44.712Z,22.20
2018-10-11T11:50:47.931Z,22.00
2018-10-11T11:53:51.076Z,22.00
2018-10-11T11:56:54.029Z,22.20
2018-10-11T11:59:56.947Z,22.40
2018-10-11T12:03:00.537Z,22.30
2018-10-11T12:06:03.737Z,22.00
2018-10-11T12:09:12.644Z,21.80
2018-10-11T12:12:59.982Z,22.50
2018-10-11T12:16:02.979Z,22.50
2018-10-11T12:19:07.581Z,22.50
2018-10-11T12:22:11.153Z,22.30
2018-10-11T12:25:14.178Z,21.90
2018-10-11T12:28:17.246Z,21.70
2018-10-11T12:31:20.456Z,21.80
2018-10-11T12:34:23.545Z,21.80
2018-10-11T12:37:26.745Z,21.90
2018-10-11T12:40:29.682Z,22.00
2018-10-11T12:43:32.726Z,21.90
2018-10-11T12:46:36.890Z,22.00
2018-10-11T12:49:41.643Z,22.00
2018-10-11T12:52:42.287Z,22.10
2018-10-11T12:55:45.591Z,22.20
2018-10-11T12:58:48.609Z,22.40
2018-10-11T13:01:51.933Z,22.60
2018-10-11T13:04:54.908Z,22.70
2018-10-11T13:07:57.910Z,22.90
2018-10-11T13:11:00.869Z,22.90
2018-10-11T13:14:03.809Z,22.90
2018-10-11T13:17:07.037Z,22.90
2018-10-11T13:20:10.494Z,23.10
2018-10-11T13:23:17.927Z,23.20
2018-10-11T13:26:16.810Z,23.20
2018-10-11T13:29:20.172Z,23.20
2018-10-11T13:32:23.350Z,23.00
2018-10-11T13:35:26.650Z,22.80
2018-10-11T13:38:29.640Z,22.40
2018-10-11T13:41:32.914Z,22.70
2018-10-11T13:44:35.830Z,22.80
2018-10-11T13:47:42.326Z,22.80
2018-10-11T13:50:42.004Z,22.60
2018-10-11T13:53:48.235Z,22.30
2018-10-11T13:56:53.880Z,22.10
2018-10-11T13:59:52.123Z,21.90
2018-10-11T14:02:55.462Z,22.00
2018-10-11T14:05:58.659Z,22.00
2018-10-11T14:09:02.502Z,21.70
2018-10-11T14:12:05.992Z,21.60
2018-10-11T14:15:09.292Z,21.30
2018-10-11T14:18:13.809Z,21.20
2018-10-11T14:21:16.988Z,21.00
2018-10-11T14:24:20.356Z,20.90
2018-10-11T14:27:23.729Z,20.90
2018-10-11T14:30:27.440Z,20.80
2018-10-11T14:33:30.693Z,20.80
2018-10-11T14:36:34.098Z,20.90
2018-10-11T14:39:37.361Z,21.10
2018-10-11T14:42:41.081Z,21.20
2018-10-11T14:45:44.267Z,21.30
2018-10-11T14:48:47.162Z,21.20
2018-10-11T14:51:50.149Z,21.20
2018-10-11T14:54:53.232Z,21.20
2018-10-11T14:57:56.166Z,21.00
2018-10-11T15:00:59.165Z,20.80
2018-10-11T15:04:02.127Z,20.70
2018-10-11T15:07:05.186Z,20.60
2018-10-11T15:10:08.317Z,20.40
2018-10-11T15:13:11.254Z,20.30
2018-10-11T15:16:14.313Z,20.30
2018-10-11T15:19:17.242Z,20.20
2018-10-11T15:22:20.234Z,20.10
2018-10-11T15:25:23.258Z,20.10
2018-10-11T15:28:26.322Z,20.10
2018-10-11T15:31:29.331Z,20.10
2018-10-11T15:34:32.265Z,20.10
2018-10-11T15:37:35.382Z,19.90
2018-10-11T15:40:38.439Z,19.90
2018-10-11T15:43:41.518Z,19.90
2018-10-11T15:46:44.482Z,19.90
2018-10-11T15:49:47.456Z,19.80
2018-10-11T15:52:50.414Z,19.70
2018-10-11T15:55:53.413Z,19.70
2018-10-11T15:58:56.910Z,19.70
2018-10-11T16:01:59.965Z,19.60
2018-10-11T16:05:03.078Z,19.60
2018-10-11T16:08:05.990Z,19.40
2018-10-11T16:11:08.999Z,19.40
2018-10-11T16:14:12.013Z,19.30
2018-10-11T16:17:15.082Z,19.60
2018-10-11T16:20:18.085Z,19.80
2018-10-11T16:23:21.027Z,19.50
2018-10-11T16:26:24.009Z,19.40
2018-10-11T16:29:26.987Z,19.30
2018-10-11T16:32:31.125Z,19.20
2018-10-11T16:35:34.088Z,19.20
2018-10-11T16:38:37.308Z,19.20
2018-10-11T16:41:40.334Z,19.10
2018-10-11T16:44:43.296Z,19.10
2018-10-11T16:47:46.246Z,19.00
2018-10-11T16:50:49.334Z,19.00
2018-10-11T16:53:52.281Z,19.00
2018-10-11T16:56:55.265Z,19.00
2018-10-11T16:59:58.213Z,18.90
2018-10-11T17:03:01.149Z,19.00
2018-10-11T17:06:04.194Z,19.00
2018-10-11T17:09:09.109Z,19.00
2018-10-11T17:12:12.057Z,18.90
2018-10-11T17:15:15.039Z,18.90
2018-10-11T17:18:18.120Z,18.80
2018-10-11T17:21:21.127Z,18.90
2018-10-11T17:24:24.224Z,18.80
2018-10-11T17:27:27.209Z,18.80
2018-10-11T17:30:30.217Z,18.80
2018-10-11T17:33:33.285Z,18.90
2018-10-11T17:36:36.289Z,18.80
2018-10-11T17:39:39.292Z,18.80
2018-10-11T17:42:42.787Z,18.90
2018-10-11T17:45:45.803Z,19.00
2018-10-11T17:48:48.837Z,19.10
2018-10-11T17:51:51.817Z,19.20
2018-10-11T17:54:56.965Z,19.40
2018-10-11T17:57:59.998Z,19.40
2018-10-11T18:01:03.798Z,19.50
2018-10-11T18:04:06.810Z,19.50
2018-10-11T18:07:10.337Z,19.60
2018-10-11T18:10:13.636Z,19.60
2018-10-11T18:13:16.722Z,19.60
2018-10-11T18:16:20.347Z,19.60
2018-10-11T18:19:23.546Z,19.70
2018-10-11T18:22:27.572Z,19.70
2018-10-11T18:25:30.549Z,19.70
2018-10-11T18:28:34.422Z,19.70
2018-10-11T18:31:37.992Z,19.80
2018-10-11T18:34:41.516Z,19.80
2018-10-11T18:37:44.605Z,19.70
2018-10-11T18:40:47.969Z,19.70
2018-10-11T18:43:51.335Z,19.70
2018-10-11T18:46:54.577Z,19.70
2018-10-11T18:49:58.340Z,19.60
2018-10-11T18:53:01.908Z,19.70
2018-10-11T18:56:05.443Z,19.70
2018-10-11T18:59:09.346Z,19.60
2018-10-11T19:02:12.605Z,19.60
2018-10-11T19:05:19.928Z,19.60
2018-10-11T19:08:23.610Z,19.60
2018-10-11T19:11:26.965Z,19.50
2018-10-11T19:14:30.745Z,19.60
2018-10-11T19:17:34.653Z,19.50
2018-10-11T19:20:38.282Z,19.50
2018-10-11T19:23:41.327Z,19.60
2018-10-11T19:26:45.106Z,19.50
2018-10-11T19:29:48.432Z,19.40
2018-10-11T19:32:52.398Z,19.40
2018-10-11T19:35:56.190Z,19.40
2018-10-11T19:38:59.221Z,19.20
2018-10-11T19:42:02.786Z,19.20
2018-10-11T19:45:06.697Z,19.10
2018-10-11T19:48:10.225Z,19.10
2018-10-11T19:51:13.757Z,19.20
2018-10-11T19:54:17.421Z,19.10
2018-10-11T19:57:21.912Z,19.10
2018-10-11T20:00:25.421Z,19.00
2018-10-11T20:03:29.582Z,19.00
2018-10-11T20:06:32.986Z,19.00
2018-10-11T20:09:36.583Z,19.00
2018-10-11T20:12:41.244Z,19.00
2018-10-11T20:15:45.053Z,19.10
2018-10-11T20:18:48.389Z,19.10
2018-10-11T20:21:51.881Z,19.10
2018-10-11T20:24:54.874Z,19.20
2018-10-11T20:28:01.587Z,19.20
2018-10-11T20:31:05.432Z,19.20
2018-10-11T20:34:09.216Z,19.20
2018-10-11T20:37:12.789Z,19.20
2018-10-11T20:40:15.805Z,19.30
2018-10-11T20:43:18.791Z,19.40
2018-10-11T20:46:21.858Z,19.40
2018-10-11T20:49:24.873Z,19.30
2018-10-11T20:52:27.947Z,19.20
2018-10-11T20:55:30.967Z,19.20
2018-10-11T20:58:33.886Z,19.10
2018-10-11T21:01:36.880Z,19.10
2018-10-11T21:04:39.841Z,19.10
2018-10-11T21:07:43.685Z,19.10
2018-10-11T21:10:46.609Z,19.10
2018-10-11T21:13:51.055Z,19.00
2018-10-11T21:16:55.418Z,19.00
2018-10-11T21:19:59.065Z,19.10
2018-10-11T21:23:02.103Z,19.10
2018-10-11T21:26:05.127Z,19.00
2018-10-11T21:29:08.043Z,19.00
2018-10-11T21:32:11.253Z,18.90
2018-10-11T21:35:14.177Z,19.00
2018-10-11T21:38:17.119Z,19.00
2018-10-11T21:41:20.093Z,19.00
2018-10-11T21:44:23.031Z,18.90
2018-10-11T21:47:25.980Z,19.00
2018-10-11T21:50:28.911Z,19.00
2018-10-11T21:53:31.775Z,19.00
2018-10-11T21:56:34.721Z,19.00
2018-10-11T21:59:37.752Z,18.90
2018-10-11T22:02:40.710Z,18.90
2018-10-11T22:05:43.684Z,19.00
2018-10-11T22:08:46.624Z,19.00
2018-10-11T22:11:49.605Z,18.90
2018-10-11T22:14:52.546Z,19.00
2018-10-11T22:17:55.465Z,19.00
2018-10-11T22:20:58.470Z,19.10
2018-10-11T22:24:01.335Z,19.10
2018-10-11T22:27:04.414Z,19.00
2018-10-11T22:30:07.547Z,19.00
2018-10-11T22:33:10.513Z,18.90
2018-10-11T22:36:13.416Z,18.90
2018-10-11T22:39:16.408Z,18.90
2018-10-11T22:42:19.375Z,18.80
2018-10-11T22:45:22.632Z,18.80
2018-10-11T22:48:25.541Z,18.70
2018-10-11T22:51:28.575Z,18.70
2018-10-11T22:54:31.550Z,18.70
2018-10-11T22:57:34.490Z,18.70
2018-10-11T23:00:37.487Z,18.70
2018-10-11T23:03:40.408Z,18.70
2018-10-11T23:06:43.337Z,18.70
2018-10-11T23:09:46.258Z,18.60
2018-10-11T23:12:49.130Z,18.70
2018-10-11T23:15:52.053Z,18.60
2018-10-11T23:18:54.954Z,18.70
2018-10-11T23:21:57.882Z,18.60
2018-10-11T23:25:00.860Z,18.60
2018-10-11T23:28:03.869Z,18.70
2018-10-11T23:31:07.348Z,18.80
2018-10-11T23:34:10.265Z,18.90
2018-10-11T23:37:13.182Z,18.90
2018-10-11T23:40:16.113Z,18.90
2018-10-11T23:43:19.061Z,18.90
2018-10-11T23:46:21.979Z,19.00
2018-10-11T23:49:24.905Z,19.00
2018-10-11T23:52:27.782Z,19.10
2018-10-11T23:55:31.563Z,19.00
2018-10-11T23:58:34.544Z,19.00
